Aérodrome :
LOGIN :

S'inscrire | Disclaimer

   EN    FR    IT 

 










Légende :    VFR   VFR Marginal   IFR   IFR Intensif   IFR Très Intensif
Visi : 
Plafond : 
>= 8 km
>= 3000ft
5 à 8 km
1000 à 3000 ft
1500m à 5 km
500 à 1000 ft
800 à 1500m
200 à 500 ft
< 800m
< 200 ft
Symboles :   Orages  Brouillard  Fortes neiges  Fortes précipitations  Vent > 20 kt
SIGMETs :   Divers  Orages  Givrage  Turbulence  Onde Orograph.  Cendres Volcan.






- Altitude de l'aérodrome : 39 ft
- Code IATA : SUF


LICA - Lamezia Terme

DERNIER METAR :
  • 180620Z AUTO 21005KT 190V250 9999 NCD 24/20 Q1019

METARs EXPIRÉS :
  • 180550Z AUTO VRB02KT 9999 NCD 23/19 Q1018
  • 180520Z AUTO VRB02KT 9999 FEW013/// 21/19 Q1018
  • 180450Z AUTO 08002KT 9999 NCD 19/18 Q1018
  • 180420Z AUTO 08004KT 9999 NCD 18/17 Q1017
  • 180350Z AUTO 10003KT 9999 NCD 17/16 Q1017
  • 180320Z AUTO 05002KT 9999 NCD 17/16 Q1017
  • 180250Z AUTO 05002KT 9999 NCD 18/17 Q1016
  • 180220Z AUTO 08005KT 9999 NCD 18/17 Q1016
  • 180150Z AUTO 07004KT 9999 NCD 18/17 Q1016

TAF TAF LICA
Valide du 18 à 06h jusqu'au 19 à 06h UTC


180500Z 1806/1906 VRB05KT 9999 FEW015
BECMG 1809/1811 26010KT
BECMG 1816/1818 VRB05KT



MET'MAP, la Météo Aéronautique d'un coup d'oeil ! - Copyright ORBIFLY Décembre 2007 - Disclaimer

ORBIFLY MET'MAP TEAM :

Programmation & Développement : Alexandra Zaïnal
Sur une idée originale de : Baudouin d'Aumeries
Soutien technique & logistique : Manuel Goepfert
Assistance : Marc-Olivier Méhu




SOURCES & CREDITS :

   NOAA